Time;durP1;ratioP1;P1;durP2;ratioP2;P2;SDS_P1;SDS_P2;PMS_P1;PMS_P2;Temp;Humidity;BMP_temperature;BMP_pressure;BME280_temperature;BME280_humidity;BME280_pressure;Samples;Min_cycle;Max_cycle;Signal;HPM_P1;HPM_P2
2021/06/09 00:01:05;;;;;;;5.55;5.00;;;20.60;99.90;;;;;;4146542;28;20747;-82
2021/06/09 00:03:05;;;;;;;8.05;5.20;;;20.50;99.90;;;;;;4145272;28;20030;-82
2021/06/09 00:05:07;;;;;;;9.30;4.93;;;20.50;99.90;;;;;;4146466;28;20100;-82
2021/06/09 00:07:08;;;;;;;6.63;4.95;;;20.50;99.90;;;;;;4130185;28;20045;-82
2021/06/09 00:09:10;;;;;;;5.75;4.80;;;20.40;99.90;;;;;;4146691;28;20486;-82
2021/06/09 00:11:11;;;;;;;;;;;20.40;99.90;;;;;;4126919;28;20042;-82
2021/06/09 00:13:11;;;;;;;5.68;4.97;;;20.40;99.90;;;;;;4143971;28;19917;-82
2021/06/09 00:15:14;;;;;;;7.07;5.40;;;20.40;99.90;;;;;;4127811;28;20037;-82
2021/06/09 00:17:15;;;;;;;6.88;5.78;;;20.40;99.90;;;;;;4146006;28;20026;-82
2021/06/09 00:19:16;;;;;;;8.15;5.22;;;20.40;99.90;;;;;;4130460;28;20662;-82
2021/06/09 00:21:19;;;;;;;10.23;5.35;;;20.40;99.90;;;;;;4146497;28;20036;-82
2021/06/09 00:23:20;;;;;;;;;;;20.30;99.90;;;;;;4146211;28;20056;-82
2021/06/09 00:25:22;;;;;;;6.88;5.93;;;20.30;99.90;;;;;;4129794;28;19914;-82
2021/06/09 00:27:25;;;;;;;6.40;5.70;;;20.30;99.90;;;;;;4145888;28;20121;-82
2021/06/09 00:29:26;;;;;;;6.72;5.60;;;20.30;99.90;;;;;;4128392;28;20099;-82
2021/06/09 00:31:26;;;;;;;9.65;6.47;;;20.20;99.90;;;;;;4129388;28;20026;-82
2021/06/09 00:33:28;;;;;;;7.30;5.80;;;20.20;99.90;;;;;;4145352;28;20120;-82
2021/06/09 00:35:29;;;;;;;10.50;6.28;;;20.10;99.90;;;;;;4125496;28;20046;-82
2021/06/09 00:37:36;;;;;;;7.72;5.68;;;20.10;99.90;;;;;;4145876;28;20386;-82
2021/06/09 00:39:37;;;;;;;8.38;6.15;;;20.10;99.90;;;;;;4145952;28;20095;-82
2021/06/09 00:41:37;;;;;;;6.70;5.85;;;20.10;99.90;;;;;;4145840;28;20390;-82
2021/06/09 00:43:38;;;;;;;6.65;5.80;;;20.00;99.90;;;;;;4145903;28;20355;-82
2021/06/09 00:45:44;;;;;;;5.45;4.88;;;20.10;99.90;;;;;;4145411;28;20061;-82
2021/06/09 00:47:45;;;;;;;7.82;5.82;;;20.00;99.90;;;;;;4129140;28;20042;-82
2021/06/09 00:49:58;;;;;;;7.53;6.38;;;20.00;99.90;;;;;;4145562;28;20030;-82
2021/06/09 00:51:59;;;;;;;6.55;5.90;;;20.00;99.90;;;;;;4125764;28;20034;-82
2021/06/09 00:54:03;;;;;;;7.35;6.10;;;20.00;99.90;;;;;;4145508;28;20034;-82
2021/06/09 00:56:08;;;;;;;6.57;5.18;;;19.90;99.90;;;;;;4145855;28;20086;-82
2021/06/09 00:58:10;;;;;;;8.07;6.05;;;20.00;99.90;;;;;;4125435;28;20077;-82
2021/06/09 01:00:12;;;;;;;6.70;6.05;;;19.90;99.90;;;;;;4145622;28;20135;-82
2021/06/09 01:02:12;;;;;;;7.55;6.18;;;19.90;99.90;;;;;;4145778;28;20030;-82
2021/06/09 01:04:13;;;;;;;8.10;6.25;;;19.90;99.90;;;;;;4145193;28;20042;-82
2021/06/09 01:06:14;;;;;;;7.20;6.50;;;19.90;99.90;;;;;;4129424;28;20044;-82
2021/06/09 01:08:17;;;;;;;7.38;6.50;;;19.90;99.90;;;;;;4145404;28;20410;-82
2021/06/09 01:10:17;;;;;;;8.20;6.38;;;19.90;99.90;;;;;;4145062;28;20030;-82
2021/06/09 01:12:18;;;;;;;8.07;6.18;;;19.80;99.90;;;;;;4128168;28;20041;-82
2021/06/09 01:14:20;;;;;;;7.18;6.15;;;19.80;99.90;;;;;;4128986;28;20142;-82
2021/06/09 01:16:22;;;;;;;8.52;6.35;;;19.80;99.90;;;;;;4129184;28;20634;-82
2021/06/09 01:18:24;;;;;;;7.22;6.18;;;19.80;99.90;;;;;;4145123;28;20041;-82
2021/06/09 01:20:25;;;;;;;7.37;6.13;;;19.70;99.90;;;;;;4129664;28;20041;-82
2021/06/09 01:22:32;;;;;;;7.60;6.05;;;19.70;99.90;;;;;;4142781;28;20261;-82
2021/06/09 01:24:33;;;;;;;7.75;5.90;;;19.70;99.90;;;;;;4128018;28;20081;-82
2021/06/09 01:26:35;;;;;;;9.18;6.45;;;19.70;99.90;;;;;;4140380;28;20034;-82
2021/06/09 01:28:37;;;;;;;7.60;6.00;;;19.70;99.90;;;;;;4144898;28;20498;-82
2021/06/09 01:30:39;;;;;;;8.50;6.65;;;19.70;99.90;;;;;;4144197;28;20034;-82
2021/06/09 01:32:40;;;;;;;7.72;6.82;;;19.60;99.90;;;;;;4137710;28;20469;-82
2021/06/09 01:34:40;;;;;;;7.68;6.50;;;19.60;99.90;;;;;;4138937;28;20041;-82
2021/06/09 01:36:42;;;;;;;10.27;6.68;;;19.60;99.90;;;;;;4133491;28;20046;-82
2021/06/09 01:38:42;;;;;;;8.55;6.10;;;19.60;99.90;;;;;;4139788;28;20030;-82
2021/06/09 01:40:43;;;;;;;7.97;6.65;;;19.60;99.90;;;;;;4140025;28;20034;-82
2021/06/09 01:42:44;;;;;;;9.68;6.68;;;19.60;99.90;;;;;;4141407;28;20113;-83
2021/06/09 01:44:45;;;;;;;7.75;5.93;;;19.50;99.90;;;;;;4139098;28;20506;-82
2021/06/09 01:46:46;;;;;;;8.68;7.70;;;19.50;99.90;;;;;;4138575;28;20684;-82
2021/06/09 01:48:47;;;;;;;10.10;8.07;;;19.50;99.90;;;;;;4140207;28;20030;-82
2021/06/09 01:50:47;;;;;;;7.30;6.28;;;19.50;99.90;;;;;;4136440;28;20046;-82
2021/06/09 01:52:50;;;;;;;8.27;7.25;;;19.50;99.90;;;;;;4118612;28;20459;-82
2021/06/09 01:54:50;;;;;;;9.02;7.53;;;19.50;99.90;;;;;;4142347;28;20065;-82
2021/06/09 01:56:52;;;;;;;10.45;8.38;;;19.50;99.90;;;;;;4132809;28;20038;-82
2021/06/09 01:58:52;;;;;;;9.40;7.90;;;19.40;99.90;;;;;;4122649;28;20169;-82
2021/06/09 02:00:55;;;;;;;8.38;7.28;;;19.50;99.90;;;;;;4118073;28;20034;-82
2021/06/09 02:02:59;;;;;;;;;;;19.40;99.90;;;;;;4123207;28;20046;-82
2021/06/09 02:05:00;;;;;;;7.85;6.75;;;19.40;99.90;;;;;;4116363;28;20444;-82
2021/06/09 02:07:01;;;;;;;9.07;7.13;;;19.40;99.90;;;;;;4135296;28;20038;-82
2021/06/09 02:09:02;;;;;;;9.32;7.32;;;19.40;99.90;;;;;;4119126;28;20042;-82
2021/06/09 02:11:03;;;;;;;8.40;7.07;;;19.40;99.90;;;;;;4139643;28;20406;-82
2021/06/09 02:13:07;;;;;;;8.55;6.93;;;19.30;99.90;;;;;;4120605;28;20054;-82
2021/06/09 02:15:09;;;;;;;9.93;7.50;;;19.30;99.90;;;;;;4135698;28;20413;-82
2021/06/09 02:17:10;;;;;;;8.90;7.50;;;19.20;99.90;;;;;;4136268;28;20088;-82
2021/06/09 02:19:12;;;;;;;8.25;6.65;;;19.30;99.90;;;;;;4138458;28;20383;-82
2021/06/09 02:21:13;;;;;;;9.88;7.43;;;19.20;99.90;;;;;;4120011;28;20245;-82
2021/06/09 02:23:25;;;;;;;10.45;8.95;;;19.30;99.90;;;;;;4133442;28;20038;-82
2021/06/09 02:25:27;;;;;;;14.82;9.52;;;19.20;99.90;;;;;;4120634;28;20038;-82
2021/06/09 02:27:28;;;;;;;12.95;10.20;;;19.20;99.90;;;;;;4134439;28;20466;-82
2021/06/09 02:29:29;;;;;;;10.80;8.95;;;19.20;99.90;;;;;;4138517;28;20137;-82
2021/06/09 02:31:30;;;;;;;10.85;8.98;;;19.10;99.90;;;;;;4119711;28;20128;-82
2021/06/09 02:33:34;;;;;;;13.73;9.07;;;19.00;99.90;;;;;;4123500;28;20073;-82
2021/06/09 02:35:37;;;;;;;12.10;8.88;;;19.00;99.90;;;;;;4122572;28;20046;-82
2021/06/09 02:37:38;;;;;;;11.18;9.13;;;19.00;99.90;;;;;;4123366;28;20450;-82
2021/06/09 02:39:38;;;;;;;12.10;9.55;;;19.00;99.90;;;;;;4125581;28;20042;-82
2021/06/09 02:41:39;;;;;;;10.95;8.80;;;18.90;99.90;;;;;;4143022;28;20049;-82
2021/06/09 02:43:39;;;;;;;11.27;8.98;;;18.90;99.90;;;;;;4145469;28;20038;-82
2021/06/09 02:45:42;;;;;;;9.95;8.10;;;18.90;99.90;;;;;;4140828;28;20055;-82
2021/06/09 02:47:51;;;;;;;11.70;9.60;;;18.90;99.90;;;;;;4144454;28;20092;-82
2021/06/09 02:49:55;;;;;;;10.85;9.38;;;18.90;99.90;;;;;;4143279;28;20092;-82
2021/06/09 02:52:28;;;;;;;11.45;9.00;;;18.80;99.90;;;;;;4128124;28;20034;-82
2021/06/09 02:54:29;;;;;;;10.90;9.05;;;18.80;99.90;;;;;;4144286;28;20483;-82
2021/06/09 02:56:41;;;;;;;12.10;9.40;;;18.80;99.90;;;;;;4125587;28;20061;-82
2021/06/09 02:59:15;;;;;;;11.07;9.40;;;18.80;99.90;;;;;;4129100;28;20099;-82
2021/06/09 03:02:00;;;;;;;10.23;8.93;;;18.80;99.90;;;;;;4143471;28;20041;-82
2021/06/09 03:04:35;;;;;;;10.75;9.30;;;18.80;99.90;;;;;;4113113;28;20046;-82
2021/06/09 03:06:45;;;;;;;10.70;8.85;;;18.80;99.90;;;;;;4127737;28;20118;-82
2021/06/09 03:08:51;;;;;;;11.80;9.55;;;18.80;99.90;;;;;;4141386;28;20068;-82
2021/06/09 03:11:03;;;;;;;11.27;9.77;;;18.80;99.90;;;;;;4143580;28;20069;-82
2021/06/09 03:13:15;;;;;;;11.07;9.23;;;18.70;99.90;;;;;;4139406;28;20041;-82
2021/06/09 03:15:36;;;;;;;11.70;9.90;;;18.70;99.90;;;;;;4138475;28;20066;-82
2021/06/09 03:17:55;;;;;;;13.65;9.50;;;18.70;99.90;;;;;;4124069;28;20065;-82
2021/06/09 03:20:10;;;;;;;12.13;9.93;;;18.70;99.90;;;;;;4140912;28;20037;-82
2021/06/09 03:22:51;;;;;;;12.07;10.32;;;18.70;99.90;;;;;;4140296;28;20103;-82
2021/06/09 03:24:57;;;;;;;12.55;10.05;;;18.70;99.90;;;;;;4125467;28;20042;-82
2021/06/09 03:26:59;;;;;;;13.70;10.50;;;18.70;99.90;;;;;;4128339;28;20045;-82
2021/06/09 03:29:20;;;;;;;12.37;10.80;;;18.60;99.90;;;;;;4144075;28;20113;-82
2021/06/09 03:31:25;;;;;;;12.65;9.70;;;18.60;99.90;;;;;;4140647;28;20273;-82
2021/06/09 03:33:33;;;;;;;11.48;9.85;;;18.60;99.90;;;;;;4122983;28;20035;-82
2021/06/09 03:35:42;;;;;;;14.48;10.32;;;18.60;99.90;;;;;;4126320;28;20125;-82
2021/06/09 03:37:46;;;;;;;13.98;11.00;;;18.50;99.90;;;;;;4145186;28;20034;-82
2021/06/09 03:39:51;;;;;;;16.33;12.05;;;18.60;99.90;;;;;;4122383;28;20038;-82
2021/06/09 03:41:55;;;;;;;13.85;11.57;;;18.60;99.90;;;;;;4142281;28;20045;-82
2021/06/09 03:43:56;;;;;;;15.13;10.95;;;18.60;99.90;;;;;;4122525;28;20514;-82
2021/06/09 03:45:59;;;;;;;13.70;11.65;;;18.60;99.90;;;;;;4121864;28;20097;-82
2021/06/09 03:48:00;;;;;;;15.35;11.05;;;18.60;99.90;;;;;;4144277;28;20049;-82
2021/06/09 03:50:03;;;;;;;13.45;11.05;;;18.50;99.90;;;;;;4124928;28;20109;-82
2021/06/09 03:52:04;;;;;;;12.35;10.40;;;18.50;99.90;;;;;;4139291;28;20087;-82
2021/06/09 03:54:06;;;;;;;14.10;10.13;;;18.60;99.90;;;;;;4143147;28;20061;-82
2021/06/09 03:56:08;;;;;;;13.55;10.80;;;18.50;99.90;;;;;;4126399;28;20050;-82
2021/06/09 03:58:12;;;;;;;12.18;10.45;;;18.50;99.90;;;;;;4142746;28;20113;-83
2021/06/09 04:00:14;;;;;;;12.77;11.25;;;18.50;99.90;;;;;;4127483;28;20054;-82
2021/06/09 04:02:15;;;;;;;15.57;12.43;;;18.50;99.90;;;;;;4121820;28;20081;-82
2021/06/09 04:04:21;;;;;;;13.15;11.43;;;18.60;99.90;;;;;;4142724;28;20398;-82
2021/06/09 04:06:24;;;;;;;13.60;11.32;;;18.60;99.90;;;;;;4127128;28;20058;-82
2021/06/09 04:08:26;;;;;;;12.98;11.15;;;18.50;99.90;;;;;;4137692;28;20052;-82
2021/06/09 04:10:28;;;;;;;12.63;10.13;;;18.50;99.90;;;;;;4140725;28;20049;-82
2021/06/09 04:12:33;;;;;;;11.15;9.88;;;18.60;99.90;;;;;;4126193;28;20034;-82
2021/06/09 04:14:41;;;;;;;12.23;10.40;;;18.50;99.90;;;;;;4126399;28;20054;-82
2021/06/09 04:16:44;;;;;;;11.27;9.88;;;18.50;99.90;;;;;;4140032;28;20038;-82
2021/06/09 04:18:48;;;;;;;12.25;10.27;;;18.50;99.90;;;;;;4138221;28;20042;-82
2021/06/09 04:20:50;;;;;;;12.63;10.52;;;18.50;99.90;;;;;;4124842;28;20030;-82
2021/06/09 04:22:51;;;;;;;18.40;12.05;;;18.50;99.90;;;;;;4123292;28;20037;-82
2021/06/09 04:24:52;;;;;;;13.57;10.98;;;18.50;99.90;;;;;;4141009;28;20073;-82
2021/06/09 04:26:53;;;;;;;12.65;11.05;;;18.50;99.90;;;;;;4124729;28;20034;-82
2021/06/09 04:28:55;;;;;;;14.50;10.25;;;18.40;99.90;;;;;;4140277;28;20033;-81
2021/06/09 04:30:56;;;;;;;12.82;10.00;;;18.50;99.90;;;;;;4123319;28;20043;-82
2021/06/09 04:32:59;;;;;;;12.35;10.40;;;18.50;99.90;;;;;;4142067;28;20044;-82
2021/06/09 04:35:00;;;;;;;13.85;11.23;;;18.50;99.90;;;;;;4140051;28;20034;-82
2021/06/09 04:37:01;;;;;;;14.20;11.52;;;18.50;99.90;;;;;;4137398;28;20049;-82
2021/06/09 04:39:03;;;;;;;13.35;11.30;;;18.50;99.90;;;;;;4129222;28;20034;-82
2021/06/09 04:41:03;;;;;;;14.05;11.55;;;18.40;99.90;;;;;;4129975;28;20462;-82
2021/06/09 04:43:04;;;;;;;13.27;11.07;;;18.40;99.90;;;;;;4123756;28;20065;-82
2021/06/09 04:45:05;;;;;;;17.27;12.98;;;18.40;99.90;;;;;;4142404;28;20037;-82
2021/06/09 04:47:07;;;;;;;17.80;12.98;;;18.40;99.90;;;;;;4124054;28;20046;-82
2021/06/09 04:49:08;;;;;;;16.48;12.35;;;18.40;99.90;;;;;;4142712;28;20049;-82
2021/06/09 04:51:09;;;;;;;14.02;11.73;;;18.40;99.90;;;;;;4144048;28;20084;-82
2021/06/09 04:53:10;;;;;;;14.25;11.32;;;18.40;99.90;;;;;;4146805;28;20425;-82
2021/06/09 04:55:11;;;;;;;13.55;10.93;;;18.40;99.90;;;;;;4124981;28;20438;-82
2021/06/09 04:57:12;;;;;;;13.32;11.93;;;18.40;99.90;;;;;;4122719;28;20479;-82
2021/06/09 04:59:14;;;;;;;14.38;11.65;;;18.40;99.90;;;;;;4141403;28;20041;-82
2021/06/09 05:01:16;;;;;;;13.75;11.35;;;18.40;99.90;;;;;;4127815;28;20046;-82
2021/06/09 05:03:17;;;;;;;15.38;12.65;;;18.50;99.90;;;;;;4131389;28;20475;-83
2021/06/09 05:05:18;;;;;;;14.65;11.88;;;18.50;99.90;;;;;;4130175;28;20144;-78
2021/06/09 05:07:19;;;;;;;15.63;13.20;;;18.50;99.90;;;;;;4143251;28;20041;-78
2021/06/09 05:09:19;;;;;;;13.82;11.48;;;18.60;99.90;;;;;;4144247;28;20029;-78
2021/06/09 05:11:31;;;;;;;14.50;12.45;;;18.60;99.90;;;;;;4144300;28;20117;-78
2021/06/09 05:13:38;;;;;;;14.35;11.68;;;18.70;99.90;;;;;;4143556;28;20034;-78
2021/06/09 05:15:46;;;;;;;17.08;13.27;;;18.70;99.90;;;;;;4144113;28;20101;-77
2021/06/09 05:17:49;;;;;;;16.85;13.75;;;18.80;99.90;;;;;;4138370;28;20029;-77
2021/06/09 05:19:51;;;;;;;19.55;14.57;;;18.80;99.90;;;;;;4123929;28;20041;-78
2021/06/09 05:21:57;;;;;;;18.05;14.27;;;18.80;99.90;;;;;;4147373;28;20053;-78
2021/06/09 05:24:01;;;;;;;18.73;14.85;;;18.90;99.90;;;;;;4131461;28;20042;-78
2021/06/09 05:26:03;;;;;;;22.15;16.45;;;19.00;99.90;;;;;;4141983;28;20136;-77
2021/06/09 05:28:06;;;;;;;19.75;16.33;;;19.00;99.90;;;;;;4138875;28;20050;-78
2021/06/09 05:30:08;;;;;;;21.90;16.98;;;19.00;99.90;;;;;;4139693;28;20851;-77
2021/06/09 05:32:10;;;;;;;25.33;17.08;;;19.10;99.90;;;;;;4138133;28;20074;-77
2021/06/09 05:34:13;;;;;;;22.23;15.77;;;19.10;99.90;;;;;;4124147;28;20038;-78
2021/06/09 05:36:23;;;;;;;19.40;15.68;;;19.20;99.90;;;;;;4125267;28;20041;-78
2021/06/09 05:38:25;;;;;;;22.83;16.48;;;19.20;99.90;;;;;;4144336;28;20044;-79
2021/06/09 05:40:26;;;;;;;21.25;16.38;;;19.30;99.90;;;;;;4126850;28;20057;-78
2021/06/09 05:42:28;;;;;;;22.77;17.77;;;19.30;99.90;;;;;;4147002;28;20026;-78
2021/06/09 05:44:32;;;;;;;21.13;16.73;;;19.40;99.90;;;;;;4148146;28;20056;-77
2021/06/09 05:46:33;;;;;;;21.77;16.55;;;19.40;99.90;;;;;;4139596;28;20038;-78
2021/06/09 05:48:43;;;;;;;21.45;17.33;;;19.60;99.90;;;;;;4145163;28;20643;-77
2021/06/09 05:50:53;;;;;;;26.92;20.17;;;19.80;99.90;;;;;;4146414;28;20026;-77
2021/06/09 05:52:59;;;;;;;30.85;19.10;;;19.90;99.90;;;;;;4141190;28;20026;-78
2021/06/09 05:55:00;;;;;;;22.75;17.70;;;20.20;99.90;;;;;;4142070;28;20118;-79
2021/06/09 05:57:08;;;;;;;21.48;16.42;;;20.50;99.90;;;;;;4123511;28;20034;-78
2021/06/09 05:59:11;;;;;;;21.23;17.30;;;20.70;99.90;;;;;;4139145;28;20042;-78
2021/06/09 06:01:12;;;;;;;19.13;16.00;;;21.10;99.90;;;;;;4142080;28;20048;-78
2021/06/09 06:03:13;;;;;;;21.77;16.90;;;21.30;99.90;;;;;;4140852;28;20526;-78
2021/06/09 06:05:15;;;;;;;26.77;19.45;;;21.60;99.90;;;;;;4142500;28;20728;-79
2021/06/09 06:07:16;;;;;;;21.48;16.80;;;21.90;99.90;;;;;;4143562;28;20469;-78
2021/06/09 06:09:17;;;;;;;26.90;19.58;;;22.20;99.90;;;;;;4142717;28;20030;-78
2021/06/09 06:11:19;;;;;;;25.00;19.30;;;22.30;99.90;;;;;;4137910;28;20303;-78
2021/06/09 06:13:24;;;;;;;23.63;17.70;;;22.50;99.90;;;;;;4140674;28;20038;-78
2021/06/09 06:15:25;;;;;;;22.63;17.17;;;22.70;99.90;;;;;;4138954;28;20034;-78
2021/06/09 06:17:26;;;;;;;21.77;16.20;;;23.00;99.90;;;;;;4140956;28;20042;-78
2021/06/09 06:19:34;;;;;;;23.00;17.45;;;23.20;99.90;;;;;;4141159;28;20124;-78
2021/06/09 06:21:35;;;;;;;23.80;17.35;;;23.40;99.90;;;;;;4146578;28;20060;-78
2021/06/09 06:23:38;;;;;;;22.60;15.95;;;23.50;99.90;;;;;;4143539;28;20029;-78
2021/06/09 06:25:42;;;;;;;26.35;17.70;;;23.70;99.90;;;;;;4140389;28;20050;-78
2021/06/09 06:27:47;;;;;;;27.88;17.98;;;23.80;99.90;;;;;;4146876;28;20053;-78
2021/06/09 06:29:48;;;;;;;17.10;14.15;;;23.70;99.90;;;;;;4140220;28;20456;-78
2021/06/09 06:31:52;;;;;;;19.20;15.23;;;23.80;99.90;;;;;;4147535;28;20064;-78
2021/06/09 06:33:55;;;;;;;21.13;16.35;;;23.90;99.90;;;;;;4146372;28;20034;-78
2021/06/09 06:35:59;;;;;;;19.33;14.82;;;23.90;99.90;;;;;;4142014;28;20463;-78
2021/06/09 06:38:00;;;;;;;17.50;13.55;;;23.90;99.90;;;;;;4140661;28;20034;-78
2021/06/09 06:40:01;;;;;;;19.77;14.98;;;24.00;99.90;;;;;;4139744;28;20041;-78
2021/06/09 06:42:02;;;;;;;22.05;15.70;;;24.00;99.90;;;;;;4142371;28;20042;-78
2021/06/09 06:44:04;;;;;;;21.15;17.13;;;24.00;99.90;;;;;;4133720;28;20146;-78
2021/06/09 06:46:05;;;;;;;20.77;16.05;;;23.90;99.90;;;;;;4143406;28;20068;-78
2021/06/09 06:48:06;;;;;;;17.27;14.43;;;23.90;99.90;;;;;;4120880;28;20815;-78
2021/06/09 06:50:08;;;;;;;20.52;14.77;;;23.90;99.90;;;;;;4140048;28;20042;-79
2021/06/09 06:52:08;;;;;;;17.65;14.18;;;23.90;99.90;;;;;;4138793;28;20109;-78
2021/06/09 06:54:09;;;;;;;22.90;16.55;;;23.90;99.90;;;;;;4124269;28;20043;-78
2021/06/09 06:56:11;;;;;;;19.08;14.88;;;23.80;99.90;;;;;;4139044;28;20390;-79
2021/06/09 06:58:12;;;;;;;20.88;16.65;;;23.80;99.90;;;;;;4141261;28;20132;-79
2021/06/09 07:00:16;;;;;;;23.33;15.80;;;23.80;99.90;;;;;;4142517;28;21024;-78
2021/06/09 07:02:18;;;;;;;20.67;14.98;;;23.80;99.90;;;;;;4141441;28;20037;-78
2021/06/09 07:04:20;;;;;;;21.15;15.93;;;23.70;99.90;;;;;;4123885;28;20410;-77
2021/06/09 07:06:22;;;;;;;21.58;15.45;;;23.70;99.90;;;;;;4154886;28;20045;-78
2021/06/09 07:08:24;;;;;;;20.33;15.65;;;23.70;99.90;;;;;;4141384;28;20386;-78
2021/06/09 07:10:26;;;;;;;19.98;15.77;;;23.60;99.90;;;;;;4141852;28;20037;-78
2021/06/09 07:12:27;;;;;;;17.35;14.00;;;23.60;99.90;;;;;;4137427;28;20367;-78
2021/06/09 07:14:31;;;;;;;20.35;14.88;;;23.60;99.90;;;;;;4141509;28;20269;-78
2021/06/09 07:16:33;;;;;;;20.05;15.10;;;23.60;99.90;;;;;;4141938;28;20046;-78
2021/06/09 07:18:36;;;;;;;24.35;17.35;;;23.60;99.90;;;;;;4141672;28;20042;-79
2021/06/09 07:20:37;;;;;;;22.30;16.48;;;23.50;99.90;;;;;;4136890;28;20105;-78
2021/06/09 07:22:41;;;;;;;23.88;17.33;;;23.40;99.90;;;;;;4132361;28;20073;-78
2021/06/09 07:24:42;;;;;;;23.77;18.38;;;23.40;99.90;;;;;;4135589;28;20030;-78
2021/06/09 07:26:48;;;;;;;23.60;17.73;;;23.30;99.90;;;;;;4140272;28;20113;-78
2021/06/09 07:28:55;;;;;;;21.30;16.60;;;23.20;99.90;;;;;;4141083;28;20118;-78
2021/06/09 07:30:58;;;;;;;25.60;17.90;;;23.20;99.90;;;;;;4126566;28;20034;-78
2021/06/09 07:33:01;;;;;;;23.50;17.60;;;23.20;99.90;;;;;;4122013;28;20486;-78
2021/06/09 07:35:03;;;;;;;19.75;15.45;;;23.20;99.90;;;;;;4121438;28;20510;-78
2021/06/09 07:37:12;;;;;;;18.13;13.77;;;23.20;99.90;;;;;;4139663;28;20040;-78
2021/06/09 07:39:30;;;;;;;20.20;15.43;;;23.20;99.90;;;;;;4142889;28;20034;-79
2021/06/09 07:41:34;;;;;;;18.42;14.05;;;23.20;99.90;;;;;;4140677;28;20063;-78
2021/06/09 07:43:38;;;;;;;17.95;14.13;;;23.20;99.90;;;;;;4138931;28;20110;-78
2021/06/09 07:45:41;;;;;;;19.92;14.55;;;23.20;99.90;;;;;;4139432;28;20095;-78
2021/06/09 07:47:44;;;;;;;15.55;12.57;;;23.20;99.90;;;;;;4138846;28;20044;-78
2021/06/09 07:49:49;;;;;;;19.20;14.85;;;23.20;99.90;;;;;;4141351;28;20042;-78
2021/06/09 07:51:50;;;;;;;17.88;13.30;;;23.20;99.90;;;;;;4145440;28;20072;-78
2021/06/09 07:53:57;;;;;;;22.73;17.15;;;23.20;99.90;;;;;;4139616;28;20035;-78
2021/06/09 07:55:58;;;;;;;24.80;18.17;;;23.20;99.90;;;;;;4139178;28;20054;-78
2021/06/09 07:58:01;;;;;;;20.77;15.32;;;23.20;99.90;;;;;;4145148;28;20486;-78
2021/06/09 08:00:05;;;;;;;17.80;13.60;;;23.20;99.90;;;;;;4137341;28;20038;-78
2021/06/09 08:02:06;;;;;;;19.40;14.55;;;23.20;99.90;;;;;;4147033;28;20101;-79
2021/06/09 08:04:09;;;;;;;18.58;14.25;;;23.30;99.90;;;;;;4144255;28;20072;-79
2021/06/09 08:06:11;;;;;;;21.00;14.93;;;23.30;99.90;;;;;;4138125;28;20458;-78
2021/06/09 08:08:13;;;;;;;19.65;15.18;;;23.40;99.90;;;;;;4145678;28;20042;-79
2021/06/09 08:10:14;;;;;;;23.17;15.52;;;23.40;99.90;;;;;;4144173;28;20389;-80
2021/06/09 08:12:17;;;;;;;17.65;13.65;;;23.40;99.90;;;;;;4145773;28;20441;-78
2021/06/09 08:14:18;;;;;;;25.45;18.55;;;23.50;99.90;;;;;;4141298;28;20550;-78
2021/06/09 08:16:20;;;;;;;24.58;15.95;;;23.50;99.90;;;;;;4143758;28;20452;-78
2021/06/09 08:18:21;;;;;;;19.42;15.30;;;23.50;99.90;;;;;;4124907;28;20089;-78
2021/06/09 08:20:22;;;;;;;20.65;14.68;;;23.50;99.90;;;;;;4145476;28;20133;-79
2021/06/09 08:22:23;;;;;;;24.75;18.13;;;23.50;99.90;;;;;;4143276;28;20033;-78
2021/06/09 08:24:42;;;;;;;24.25;17.33;;;23.50;99.90;;;;;;4104465;28;20049;-78
2021/06/09 08:26:43;;;;;;;18.33;14.52;;;23.60;99.90;;;;;;4125075;28;20030;-78
2021/06/09 08:28:45;;;;;;;17.88;12.70;;;23.60;99.90;;;;;;4145341;28;20117;-81
2021/06/09 08:30:45;;;;;;;16.05;11.73;;;23.70;99.90;;;;;;4143607;28;20056;-79
2021/06/09 08:32:47;;;;;;;15.38;12.07;;;23.70;99.90;;;;;;4143200;28;20069;-79
2021/06/09 08:34:47;;;;;;;15.40;11.45;;;23.70;99.90;;;;;;4121620;28;20506;-79
2021/06/09 08:36:49;;;;;;;17.15;13.02;;;23.80;99.90;;;;;;4144399;28;20057;-79
2021/06/09 08:38:54;;;;;;;15.30;12.40;;;23.80;99.90;;;;;;4125887;28;20449;-79
2021/06/09 08:40:56;;;;;;;18.67;12.60;;;23.90;99.90;;;;;;4141302;28;20036;-79
2021/06/09 08:42:57;;;;;;;21.13;14.30;;;23.90;99.90;;;;;;4141429;28;20045;-79
2021/06/09 08:44:59;;;;;;;17.92;12.15;;;24.00;99.90;;;;;;4136336;28;20506;-79
2021/06/09 08:47:03;;;;;;;14.43;11.60;;;24.10;99.90;;;;;;4142719;28;20632;-79
2021/06/09 08:49:04;;;;;;;14.82;10.93;;;24.10;99.90;;;;;;4125499;28;20270;-78
2021/06/09 08:51:07;;;;;;;15.35;11.40;;;24.20;99.90;;;;;;4144298;28;20097;-79
2021/06/09 08:53:09;;;;;;;16.55;11.05;;;24.30;99.90;;;;;;4147722;28;20042;-79
2021/06/09 08:55:14;;;;;;;17.38;12.90;;;24.40;99.90;;;;;;4126120;28;20085;-79
2021/06/09 08:57:16;;;;;;;13.80;11.02;;;24.50;99.90;;;;;;4144398;28;20121;-78
2021/06/09 08:59:17;;;;;;;16.63;12.43;;;24.50;99.90;;;;;;4139403;28;20392;-79
2021/06/09 09:01:19;;;;;;;12.70;10.18;;;24.60;99.90;;;;;;4145421;28;20360;-79
2021/06/09 09:03:19;;;;;;;17.02;13.13;;;24.70;99.90;;;;;;4127277;28;20057;-79
2021/06/09 09:05:21;;;;;;;15.35;11.45;;;24.70;99.90;;;;;;4141334;28;20065;-79
2021/06/09 09:07:24;;;;;;;14.18;10.68;;;24.70;99.90;;;;;;4148395;28;20041;-79
2021/06/09 09:09:25;;;;;;;11.45;9.75;;;24.70;99.90;;;;;;4140909;28;20143;-80
2021/06/09 09:11:26;;;;;;;11.60;9.75;;;24.80;99.90;;;;;;4146579;28;20441;-78
2021/06/09 09:13:27;;;;;;;12.47;9.53;;;24.90;99.90;;;;;;4145370;28;20033;-78
2021/06/09 09:15:29;;;;;;;10.82;8.85;;;25.00;99.90;;;;;;4148270;28;24769;-78
2021/06/09 09:17:29;;;;;;;11.73;8.38;;;25.10;99.90;;;;;;4146856;28;20034;-78
2021/06/09 09:19:33;;;;;;;11.73;9.52;;;25.20;99.90;;;;;;4144503;28;20049;-78
2021/06/09 09:21:40;;;;;;;16.98;11.98;;;25.20;99.90;;;;;;4145113;28;20065;-78
2021/06/09 09:23:49;;;;;;;15.45;12.27;;;25.30;99.90;;;;;;4129481;28;20128;-78
2021/06/09 09:25:56;;;;;;;14.15;11.30;;;25.20;99.90;;;;;;4145716;28;20061;-78
2021/06/09 09:28:03;;;;;;;12.80;10.20;;;25.20;99.90;;;;;;4144360;28;20124;-78
2021/06/09 09:30:10;;;;;;;17.88;14.10;;;25.20;99.90;;;;;;4147508;28;20467;-78
2021/06/09 09:32:10;;;;;;;17.10;13.00;;;25.20;99.90;;;;;;4126192;28;20762;-78
2021/06/09 09:34:27;;;;;;;19.52;13.18;;;25.20;99.90;;;;;;4141662;28;20088;-78
2021/06/09 09:36:30;;;;;;;18.67;13.38;;;25.20;99.90;;;;;;4144356;28;20089;-78
2021/06/09 09:38:31;;;;;;;14.80;11.50;;;25.20;99.90;;;;;;4141306;28;20414;-78
2021/06/09 09:40:32;;;;;;;15.05;10.75;;;25.20;99.90;;;;;;4147436;28;20033;-78
2021/06/09 09:42:33;;;;;;;13.30;10.57;;;25.20;99.90;;;;;;4146232;28;20037;-78
2021/06/09 09:44:39;;;;;;;12.15;10.18;;;25.20;99.90;;;;;;4127446;28;20042;-78
2021/06/09 09:46:54;;;;;;;14.65;10.25;;;25.20;99.90;;;;;;4141995;28;20038;-78
2021/06/09 09:49:02;;;;;;;12.88;10.30;;;25.20;99.90;;;;;;4145306;28;20033;-78
2021/06/09 09:51:04;;;;;;;20.02;14.10;;;25.30;99.90;;;;;;4125921;28;20113;-78
2021/06/09 09:53:18;;;;;;;14.13;10.93;;;25.30;99.90;;;;;;4144581;28;20105;-78
2021/06/09 09:55:19;;;;;;;15.23;12.48;;;25.40;99.90;;;;;;4145306;28;20508;-78
2021/06/09 09:57:20;;;;;;;12.55;9.65;;;25.40;99.90;;;;;;4147079;28;20038;-78
2021/06/09 09:59:25;;;;;;;17.17;12.15;;;25.50;99.90;;;;;;4122997;28;20043;-78
2021/06/09 10:01:30;;;;;;;15.45;10.38;;;25.50;99.90;;;;;;4125866;28;20030;-78
2021/06/09 10:03:36;;;;;;;12.40;9.63;;;25.60;99.90;;;;;;4147091;28;20041;-78
2021/06/09 10:05:37;;;;;;;15.25;9.55;;;25.60;99.90;;;;;;4146490;28;20046;-78
2021/06/09 10:07:39;;;;;;;10.82;8.88;;;25.70;99.90;;;;;;4145517;28;20518;-78
2021/06/09 10:09:44;;;;;;;11.75;8.27;;;25.70;99.90;;;;;;4147469;28;20573;-78
2021/06/09 10:11:48;;;;;;;9.13;6.63;;;25.80;99.90;;;;;;4145480;28;20034;-78
2021/06/09 10:13:51;;;;;;;11.93;8.23;;;25.90;99.90;;;;;;4145360;28;20041;-78
2021/06/09 10:15:52;;;;;;;12.68;9.82;;;26.00;99.90;;;;;;4140634;28;20100;-78
2021/06/09 10:18:25;;;;;;;10.93;8.32;;;26.00;99.90;;;;;;4139776;28;20034;-78
2021/06/09 10:20:36;;;;;;;7.82;6.85;;;26.20;99.90;;;;;;4146007;28;20040;-78
2021/06/09 10:22:37;;;;;;;7.35;5.88;;;26.20;99.90;;;;;;4148100;28;20042;-78
2021/06/09 10:24:54;;;;;;;8.82;7.13;;;26.20;98.90;;;;;;4145765;28;20079;-78
2021/06/09 10:27:00;;;;;;;12.43;9.93;;;26.30;99.90;;;;;;4141759;28;20085;-78
2021/06/09 10:29:03;;;;;;;9.82;8.68;;;26.40;99.90;;;;;;4144409;28;20084;-78
2021/06/09 10:31:04;;;;;;;11.45;7.93;;;26.50;99.90;;;;;;4145042;28;20501;-78
2021/06/09 10:33:04;;;;;;;11.25;7.72;;;26.60;99.70;;;;;;4146674;28;20026;-78